Sunday, January 20, 2019, 7:11 AM GMT
Back to Local

CYHU, Saint Hubert Airport

Location: , , Canada Lat: 45.517
Local Time: 7:11 AM GMT ( 7:11 GMT) Lon: -73.417
Time Zone: GMT Elev: 88 ft

Show me the last for .
Show Decoded

2019-01-20 06:00 METAR CYHU 200600Z AUTO 03014G19KT 1 1/4SM -SN OVC022 M21/M24 A3017 RMK SLP220 =
2019-01-20 05:00 METAR CYHU 200500Z AUTO 03015G20KT 1SM R24R/P6000FT/U -SN VV018 M21/M24 A3020
                 RMK PRESFR SLP232 =
2019-01-20 04:00 METAR CYHU 200400Z AUTO 04014G20KT 1SM R24R/P6000FT/D -SN VV019 M22/M25 A3026
                 RMK SLP250 =
2019-01-20 03:02 METAR CYHU 200302Z AUTO 03015G20KT 1 1/4SM -SN OVC024 M22/M25 A3029 RMK SLP262 =
2019-01-20 03:00 METAR CYHU 200300Z AUTO 04014KT 1 1/4SM -SN OVC026 M22/M25 A3029 RMK SLP263 =
2019-01-20 02:19 METAR CYHU 200219Z AUTO 04014G19KT 1SM R24R/P6000FT/N -SN OVC026 M22/M26 A3031
                 RMK SLP269 =
2019-01-20 02:00 METAR CYHU 200200Z AUTO 04015KT 1SM R24R/P6000FT/D -SN OVC022 M23/M26 A3032 RMK
                 SLP273 =
2019-01-20 01:02 METAR CYHU 200102Z AUTO 04014KT 1 1/4SM -SN OVC024 M23/M26 A3035 RMK SLP281 =
2019-01-20 01:00 METAR CYHU 200100Z AUTO 03014KT 1 1/4SM -SN OVC026 M23/M26 A3035 RMK SLP282 =
2019-01-20 00:27 METAR CYHU 200027Z AUTO 03016KT 1 3/4SM -SN OVC038 M23/M27 A3036 RMK SLP284 =
2019-01-20 00:00 METAR CYHU 200000Z AUTO 04012KT 2 1/4SM -SN OVC050 M23/M27 A3037 RMK SLP288 =
2019-01-19 23:55 METAR CYHU 192355Z AUTO 04012KT 2SM -SN OVC050 M24/M27 A3037 RMK SLP289 =
2019-01-19 23:00 METAR CYHU 192300Z AUTO 05011KT 1 1/2SM -SN OVC032 M24/M28 A3040 RMK SLP300 =
2019-01-19 22:34 METAR CYHU 192234Z AUTO 05011KT 1 3/4SM -SN OVC036 M24/M28 A3042 RMK SLP304 =
2019-01-19 22:27 METAR CYHU 192227Z AUTO 05011KT 2 1/4SM -SN OVC038 M24/M28 A3042 RMK SLP307 =
2019-01-19 22:00 METAR CYHU 192200Z AUTO 05010KT 3SM -SN OVC055 M24/M29 A3044 RMK SLP311 =
2019-01-19 21:31 METAR CYHU 192131Z AUTO 05012KT 5SM -SN OVC050 M24/M30 A3044 RMK SLP314 =
2019-01-19 21:02 METAR CYHU 192102Z AUTO 06010KT 9SM -SN OVC050 M24/M30 A3046 RMK SLP319 =
2019-01-19 21:00 METAR CYHU 192100Z AUTO 06009KT 9SM OVC050 M24/M30 A3046 RMK SLP319 =
2019-01-19 20:00 METAR CYHU 192000Z AUTO 04010KT 9SM BKN065 OVC078 M24/M30 A3044 RMK SLP311 =
2019-01-19 19:00 METAR CYHU 191900Z AUTO 05009KT 9SM OVC090 M24/M30 A3044 RMK SLP312 =
2019-01-19 18:00 METAR CYHU 191800Z AUTO 03011KT 9SM BKN110 M24/M30 A3046 RMK SLP319 =
2019-01-19 17:00 METAR CYHU 191700Z AUTO 03011KT 9SM FEW120 M24/M30 A3050 RMK PRESFR SLP332 =
2019-01-19 16:00 METAR CYHU 191600Z AUTO 03010KT 9SM CLR M24/M30 A3054 RMK SLP347 =
2019-01-19 15:00 METAR CYHU 191500Z AUTO 03013KT 9SM CLR M24/M30 A3055 RMK SLP350 =
2019-01-19 14:00 METAR CYHU 191400Z AUTO 03013KT 9SM CLR M24/M30 A3054 RMK SLP346 =
2019-01-19 13:00 METAR CYHU 191300Z AUTO 05012G18KT 9SM BKN150 M23/M29 A3050 RMK SLP334 =
2019-01-19 12:00 METAR CYHU 191200Z AUTO 04005KT 9SM SCT220 OVC240 M23/M28 A3047 RMK SLP322 =
2019-01-19 11:00 METAR CYHU 191100Z AUTO 02007KT 9SM CLR M22/M28 A3044 RMK SLP313 =
2019-01-19 10:00 METAR CYHU 191000Z AUTO 02011KT 9SM CLR M21/M26 A3042 RMK SLP304 =
2019-01-19 09:00 METAR CYHU 190900Z AUTO 01010KT 9SM CLR M20/M26 A3038 RMK SLP292 =
2019-01-19 08:00 METAR CYHU 190800Z AUTO 36010G15KT 9SM SCT050 M18/M24 A3036 RMK SLP285 =

Support USWX by starting your Amazon purchase here.